Time;durP1;ratioP1;P1;durP2;ratioP2;P2;SDS_P1;SDS_P2;PMS_P1;PMS_P2;Temp;Humidity;BMP_temperature;BMP_pressure;BME280_temperature;BME280_humidity;BME280_pressure;Samples;Min_cycle;Max_cycle;Signal;HPM_P1;HPM_P2
2024/02/15 00:00:06;;;;;;;8.20;7.50;;;14.20;99.90;;;;;;4994540;28;20399;-71
2024/02/15 00:02:32;;;;;;;8.00;7.50;;;14.20;99.90;;;;;;4995327;28;20411;-72
2024/02/15 00:04:58;;;;;;;7.80;7.30;;;14.10;99.90;;;;;;4994441;28;20426;-72
2024/02/15 00:07:23;;;;;;;8.17;7.67;;;14.10;99.90;;;;;;4993891;28;20640;-72
2024/02/15 00:09:49;;;;;;;8.13;7.63;;;14.10;99.90;;;;;;4992758;28;20652;-65
2024/02/15 00:12:15;;;;;;;8.17;7.67;;;14.20;99.90;;;;;;4994588;28;20172;-73
2024/02/15 00:14:42;;;;;;;7.50;7.10;;;14.20;99.90;;;;;;4994128;28;20201;-73
2024/02/15 00:17:08;;;;;;;8.20;7.70;;;14.20;99.90;;;;;;4993961;28;20449;-73
2024/02/15 00:19:34;;;;;;;7.83;7.23;;;14.30;99.90;;;;;;4994869;28;20414;-73
2024/02/15 00:21:59;;;;;;;7.37;6.70;;;14.30;99.90;;;;;;4994111;28;20176;-72
2024/02/15 00:24:25;;;;;;;7.50;7.00;;;14.30;99.90;;;;;;4994890;28;20187;-72
2024/02/15 00:26:51;;;;;;;7.80;7.20;;;14.30;99.90;;;;;;4976823;28;20287;-65
2024/02/15 00:29:18;;;;;;;8.40;7.90;;;14.30;99.90;;;;;;4994184;28;20575;-73
2024/02/15 00:31:43;;;;;;;8.47;7.80;;;14.30;99.90;;;;;;4994735;28;20703;-73
2024/02/15 00:34:09;;;;;;;7.37;6.97;;;14.30;99.90;;;;;;4993801;28;20394;-72
2024/02/15 00:36:35;;;;;;;8.20;7.70;;;14.40;99.90;;;;;;4992972;28;20179;-72
2024/02/15 00:39:01;;;;;;;8.00;7.50;;;14.40;99.90;;;;;;4993710;28;20761;-72
2024/02/15 00:41:27;;;;;;;7.93;7.30;;;14.30;99.90;;;;;;4994669;28;20644;-73
2024/02/15 00:43:53;;;;;;;7.83;7.20;;;14.30;99.90;;;;;;4993665;28;20177;-67
2024/02/15 00:46:19;;;;;;;7.10;6.50;;;14.30;99.90;;;;;;4994270;28;20492;-73
2024/02/15 00:48:45;;;;;;;6.87;6.30;;;14.40;99.90;;;;;;4993842;28;20424;-73
2024/02/15 00:51:10;;;;;;;9.70;7.20;;;14.40;99.90;;;;;;4993598;28;20170;-72
2024/02/15 00:53:36;;;;;;;6.83;6.33;;;14.40;99.90;;;;;;4994435;28;20174;-72
2024/02/15 00:56:02;;;;;;;7.57;7.07;;;14.30;99.90;;;;;;4992516;28;20223;-71
2024/02/15 00:58:28;;;;;;;6.80;6.40;;;14.30;99.90;;;;;;4994330;28;20185;-72
2024/02/15 01:00:53;;;;;;;6.70;6.30;;;14.30;99.90;;;;;;4993195;28;20403;-65
2024/02/15 01:03:19;;;;;;;6.30;5.90;;;14.30;99.90;;;;;;4993622;28;20223;-71
2024/02/15 01:05:45;;;;;;;6.37;5.97;;;14.30;99.90;;;;;;4993157;28;20184;-72
2024/02/15 01:08:11;;;;;;;6.47;6.07;;;14.30;99.90;;;;;;4992191;28;20196;-72
2024/02/15 01:10:37;;;;;;;6.40;6.10;;;14.30;99.90;;;;;;4993239;28;20451;-72
2024/02/15 01:13:03;;;;;;;6.50;6.07;;;14.20;99.90;;;;;;4993221;28;20652;-72
2024/02/15 01:15:29;;;;;;;7.13;6.73;;;14.20;99.90;;;;;;4993606;28;20456;-71
2024/02/15 01:17:55;;;;;;;6.70;6.30;;;14.20;99.90;;;;;;4992393;28;20236;-64
2024/02/15 01:20:21;;;;;;;6.60;6.17;;;14.20;99.90;;;;;;4992869;28;20530;-72
2024/02/15 01:22:47;;;;;;;6.90;6.27;;;14.20;99.90;;;;;;4993035;28;20507;-72
2024/02/15 01:25:14;;;;;;;6.53;6.13;;;14.30;99.90;;;;;;4975225;28;20340;-72
2024/02/15 01:27:40;;;;;;;6.77;6.30;;;14.30;99.90;;;;;;4993603;28;20412;-71
2024/02/15 01:30:08;;;;;;;7.07;6.60;;;14.30;99.90;;;;;;4992829;28;20881;-73
2024/02/15 01:32:34;;;;;;;7.33;6.90;;;14.30;99.90;;;;;;4993025;28;20176;-73
2024/02/15 01:35:00;;;;;;;7.33;6.73;;;14.30;99.90;;;;;;4992330;28;20455;-72
2024/02/15 01:37:25;;;;;;;7.50;7.00;;;14.30;99.90;;;;;;4992320;28;20488;-73
2024/02/15 01:39:51;;;;;;;7.93;6.37;;;14.30;99.90;;;;;;4993485;28;20570;-73
2024/02/15 01:42:18;;;;;;;6.90;6.50;;;14.40;99.90;;;;;;4993287;28;20182;-73
2024/02/15 01:44:44;;;;;;;6.90;6.30;;;14.40;99.90;;;;;;4993409;28;20419;-72
2024/02/15 01:47:11;;;;;;;7.60;6.90;;;14.40;99.90;;;;;;4975017;28;20423;-72
2024/02/15 01:49:37;;;;;;;6.83;6.33;;;14.40;99.90;;;;;;4992773;28;20189;-72
2024/02/15 01:52:08;;;;;;;8.13;7.47;;;14.40;99.90;;;;;;4991664;28;20499;-72
2024/02/15 01:54:35;;;;;;;7.40;6.80;;;14.40;99.90;;;;;;4992266;28;20690;-72
2024/02/15 01:57:02;;;;;;;8.97;8.27;;;14.40;99.90;;;;;;4992389;28;20804;-72
2024/02/15 01:59:29;;;;;;;9.43;8.53;;;14.40;99.90;;;;;;4975077;28;20416;-72
2024/02/15 02:01:55;;;;;;;8.40;7.60;;;14.40;99.90;;;;;;4992835;28;20411;-64
2024/02/15 02:04:21;;;;;;;9.70;8.90;;;14.40;99.90;;;;;;4991879;28;20435;-73
2024/02/15 02:06:47;;;;;;;8.77;8.07;;;14.40;99.90;;;;;;4991206;28;20809;-73
2024/02/15 02:09:14;;;;;;;9.60;9.00;;;14.40;99.90;;;;;;4990661;28;20420;-73
2024/02/15 02:11:43;;;;;;;10.07;9.10;;;14.50;99.90;;;;;;4992479;28;20432;-73
2024/02/15 02:14:09;;;;;;;10.27;9.37;;;14.50;99.90;;;;;;4992207;28;20421;-73
2024/02/15 02:16:35;;;;;;;9.43;8.67;;;14.50;99.90;;;;;;4992283;28;20563;-67
2024/02/15 02:19:01;;;;;;;9.93;9.03;;;14.50;99.90;;;;;;4992124;28;20193;-71
2024/02/15 02:21:28;;;;;;;10.20;9.30;;;14.50;99.90;;;;;;4992830;28;20197;-72
2024/02/15 02:23:58;;;;;;;11.30;10.50;;;14.50;99.90;;;;;;4992908;28;20498;-73
2024/02/15 02:26:25;;;;;;;10.07;8.97;;;14.50;99.90;;;;;;4989575;28;20486;-73
2024/02/15 02:28:54;;;;;;;12.50;11.20;;;14.50;99.90;;;;;;4986586;28;20429;-73
2024/02/15 02:31:21;;;;;;;10.80;9.87;;;14.50;99.90;;;;;;4993132;28;20499;-74
2024/02/15 02:33:53;;;;;;;12.17;11.03;;;14.50;99.90;;;;;;4996869;28;20413;-72
2024/02/15 02:36:20;;;;;;;12.33;11.07;;;14.50;99.90;;;;;;4995568;28;20523;-73
2024/02/15 02:38:49;;;;;;;11.53;10.63;;;14.60;99.90;;;;;;4996827;28;20417;-72
2024/02/15 02:41:16;;;;;;;12.60;11.30;;;14.60;99.90;;;;;;4995984;28;20414;-73
2024/02/15 02:43:42;;;;;;;12.20;11.10;;;14.60;99.90;;;;;;4995858;28;20881;-73
2024/02/15 02:46:11;;;;;;;12.90;11.90;;;14.60;99.90;;;;;;4995889;28;20427;-72
2024/02/15 02:48:38;;;;;;;12.90;11.70;;;14.60;99.90;;;;;;4996129;28;20183;-72
2024/02/15 02:51:06;;;;;;;12.70;11.50;;;14.60;99.90;;;;;;4995595;28;20432;-72
2024/02/15 02:53:31;;;;;;;11.40;10.40;;;14.60;99.90;;;;;;4996481;28;20437;-73
2024/02/15 02:55:57;;;;;;;12.83;11.63;;;14.50;99.90;;;;;;4994657;28;20493;-64
2024/02/15 02:58:23;;;;;;;12.30;11.00;;;14.50;99.90;;;;;;4996009;28;20182;-72
2024/02/15 03:00:49;;;;;;;12.33;11.23;;;14.50;99.90;;;;;;4978946;28;20545;-72
2024/02/15 03:03:22;;;;;;;13.10;11.83;;;14.50;99.90;;;;;;4994600;28;20179;-73
2024/02/15 03:05:48;;;;;;;11.20;10.37;;;14.50;99.90;;;;;;4995915;28;20889;-73
2024/02/15 03:08:15;;;;;;;12.20;10.90;;;14.50;99.90;;;;;;4995483;28;20412;-73
2024/02/15 03:10:40;;;;;;;12.57;11.33;;;14.50;99.90;;;;;;4996225;28;20185;-73
2024/02/15 03:13:09;;;;;;;10.97;10.10;;;14.50;99.90;;;;;;4995339;28;20916;-72
2024/02/15 03:15:35;;;;;;;12.97;11.67;;;14.50;99.90;;;;;;4996009;28;20216;-73
2024/02/15 03:18:06;;;;;;;12.10;11.10;;;14.50;99.90;;;;;;4994802;28;21015;-65
2024/02/15 03:20:37;;;;;;;12.20;11.20;;;14.40;99.90;;;;;;4996154;28;20481;-72
2024/02/15 03:23:03;;;;;;;13.07;11.83;;;14.50;99.90;;;;;;4994604;28;20433;-70
2024/02/15 03:25:29;;;;;;;14.03;11.50;;;14.40;99.90;;;;;;4995324;28;20448;-72
2024/02/15 03:27:56;;;;;;;12.77;11.57;;;14.40;99.90;;;;;;4995902;28;20408;-72
2024/02/15 03:30:25;;;;;;;12.73;11.60;;;14.40;99.90;;;;;;4977666;28;20421;-72
2024/02/15 03:32:51;;;;;;;14.43;11.40;;;14.40;99.90;;;;;;4995530;28;20910;-72
2024/02/15 03:35:22;;;;;;;12.70;11.40;;;14.40;99.90;;;;;;4993549;28;20495;-71
2024/02/15 03:37:51;;;;;;;13.00;11.60;;;14.40;99.90;;;;;;4995174;28;20398;-72
2024/02/15 03:40:18;;;;;;;12.97;11.80;;;14.30;99.90;;;;;;4994695;28;20456;-71
2024/02/15 03:42:46;;;;;;;12.83;10.97;;;14.30;99.90;;;;;;4975945;28;20781;-72
2024/02/15 03:45:12;;;;;;;12.30;11.10;;;14.30;99.90;;;;;;4994874;28;20417;-72
2024/02/15 03:47:38;;;;;;;13.07;11.77;;;14.30;99.90;;;;;;4977756;28;20789;-72
2024/02/15 03:50:06;;;;;;;12.50;11.20;;;14.30;99.90;;;;;;4995001;28;20425;-68
2024/02/15 03:52:32;;;;;;;11.97;11.00;;;14.30;99.90;;;;;;4995677;28;20436;-72
2024/02/15 03:54:58;;;;;;;11.07;10.07;;;14.30;99.90;;;;;;4993807;28;20482;-72
2024/02/15 03:57:24;;;;;;;12.23;10.70;;;14.30;99.90;;;;;;4994488;28;20412;-71
2024/02/15 03:59:54;;;;;;;10.23;9.17;;;14.30;99.90;;;;;;4995326;28;20480;-73
2024/02/15 04:02:20;;;;;;;10.67;9.67;;;14.30;99.90;;;;;;4973201;28;20426;-73
2024/02/15 04:04:52;;;;;;;10.50;9.60;;;14.30;99.90;;;;;;4975592;28;20407;-73
2024/02/15 04:07:19;;;;;;;10.03;9.23;;;14.30;99.90;;;;;;4975051;28;20441;-73
2024/02/15 04:09:48;;;;;;;11.17;10.27;;;14.30;99.90;;;;;;4975562;28;20504;-73
2024/02/15 04:12:14;;;;;;;9.37;8.47;;;14.40;99.90;;;;;;4974891;28;20409;-72
2024/02/15 04:14:40;;;;;;;10.07;9.00;;;14.40;99.90;;;;;;4977642;28;20469;-72
2024/02/15 04:17:07;;;;;;;10.43;9.60;;;14.40;99.90;;;;;;4993891;28;20469;-71
2024/02/15 04:19:33;;;;;;;9.47;8.67;;;14.40;99.90;;;;;;4994958;28;20788;-72
2024/02/15 04:22:00;;;;;;;9.53;8.63;;;14.40;99.90;;;;;;4994744;28;20516;-72
2024/02/15 04:24:29;;;;;;;10.70;9.63;;;14.40;99.90;;;;;;4993093;28;20518;-72
2024/02/15 04:26:55;;;;;;;7.73;7.13;;;14.50;99.90;;;;;;4976703;28;20438;-73
2024/02/15 04:29:21;;;;;;;9.83;7.70;;;14.50;99.90;;;;;;4993238;28;20516;-72
2024/02/15 04:31:50;;;;;;;14.47;8.10;;;14.50;99.90;;;;;;4994919;28;20180;-73
2024/02/15 04:34:16;;;;;;;6.43;5.83;;;14.50;99.90;;;;;;4993006;28;20290;-71
2024/02/15 04:36:49;;;;;;;8.03;7.17;;;14.50;99.90;;;;;;4994397;28;20441;-72
2024/02/15 04:39:23;;;;;;;6.67;6.07;;;14.50;99.90;;;;;;4993894;28;20394;-72
2024/02/15 04:41:53;;;;;;;7.03;6.13;;;14.50;99.90;;;;;;4994686;28;20432;-72
2024/02/15 04:44:20;;;;;;;7.50;6.80;;;14.50;99.90;;;;;;4993191;28;20425;-72
2024/02/15 04:46:47;;;;;;;7.40;6.73;;;14.50;99.90;;;;;;4994088;28;20421;-72
2024/02/15 04:49:14;;;;;;;7.53;7.03;;;14.60;99.90;;;;;;4993573;28;20424;-72
2024/02/15 04:51:41;;;;;;;7.97;7.17;;;14.60;99.90;;;;;;4977001;28;20413;-72
2024/02/15 04:54:12;;;;;;;7.70;6.93;;;14.60;99.90;;;;;;4991818;28;20429;-64
2024/02/15 04:56:42;;;;;;;7.93;7.27;;;14.60;99.90;;;;;;4994290;28;20457;-72
2024/02/15 04:59:09;;;;;;;8.13;7.17;;;14.60;99.90;;;;;;4993443;28;20400;-63
2024/02/15 05:01:35;;;;;;;8.23;7.43;;;14.60;99.90;;;;;;4993878;28;20929;-72
2024/02/15 05:04:06;;;;;;;8.17;7.40;;;14.50;99.90;;;;;;4994163;28;20398;-71
2024/02/15 05:06:32;;;;;;;7.33;6.83;;;14.50;99.90;;;;;;4993197;28;20440;-72
2024/02/15 05:08:59;;;;;;;6.77;6.27;;;14.50;99.90;;;;;;4994100;28;20412;-72
2024/02/15 05:11:26;;;;;;;6.77;6.17;;;14.50;99.90;;;;;;4992975;28;21066;-72
2024/02/15 05:13:52;;;;;;;6.77;6.20;;;14.50;99.90;;;;;;4993282;28;20428;-72
2024/02/15 05:16:18;;;;;;;6.93;6.40;;;14.50;99.90;;;;;;4992920;28;20825;-71
2024/02/15 05:18:45;;;;;;;7.00;6.40;;;14.50;99.90;;;;;;4993470;28;20891;-72
2024/02/15 05:21:11;;;;;;;6.43;5.83;;;14.50;99.90;;;;;;4993043;28;20408;-71
2024/02/15 05:23:39;;;;;;;6.63;6.07;;;14.50;99.90;;;;;;4993140;28;20474;-72
2024/02/15 05:26:09;;;;;;;6.50;5.80;;;14.50;99.90;;;;;;4993031;28;20441;-72
2024/02/15 05:28:35;;;;;;;8.27;5.80;;;14.40;99.90;;;;;;4993639;28;20437;-72
2024/02/15 05:31:16;;;;;;;6.97;6.27;;;14.50;99.90;;;;;;4993634;28;20432;-71
2024/02/15 05:33:43;;;;;;;7.50;6.57;;;14.40;99.90;;;;;;4975486;28;20432;-69
2024/02/15 05:36:11;;;;;;;8.13;7.40;;;14.50;99.90;;;;;;4992925;28;20468;-64
2024/02/15 05:38:37;;;;;;;7.00;6.40;;;14.50;99.90;;;;;;4993810;28;20416;-72
2024/02/15 05:41:03;;;;;;;6.23;5.83;;;14.50;99.90;;;;;;4992388;28;20945;-71
2024/02/15 05:43:29;;;;;;;6.90;6.40;;;14.50;99.90;;;;;;4992441;28;20231;-71
2024/02/15 05:45:55;;;;;;;6.20;5.63;;;14.50;99.90;;;;;;4992419;28;20175;-71
2024/02/15 05:48:21;;;;;;;7.50;6.90;;;14.50;99.90;;;;;;4974382;28;20437;-66
2024/02/15 05:50:47;;;;;;;6.00;5.60;;;14.50;99.90;;;;;;4974990;28;20884;-65
2024/02/15 05:53:12;;;;;;;6.93;6.43;;;14.50;99.90;;;;;;4991222;28;20504;-68
2024/02/15 05:55:40;;;;;;;6.10;5.70;;;14.50;99.90;;;;;;4990631;28;20215;-70
2024/02/15 05:58:09;;;;;;;6.57;5.47;;;14.50;99.90;;;;;;4991169;28;20189;-69
2024/02/15 06:00:35;;;;;;;5.53;5.10;;;14.50;99.90;;;;;;4992697;28;20409;-69
2024/02/15 06:03:02;;;;;;;5.57;5.07;;;14.50;99.90;;;;;;4974781;28;20570;-70
2024/02/15 06:05:28;;;;;;;6.80;5.20;;;14.50;99.90;;;;;;4991721;28;20194;-69
2024/02/15 06:07:53;;;;;;;6.03;5.53;;;14.60;99.90;;;;;;4991590;28;20426;-69
2024/02/15 06:10:19;;;;;;;6.23;5.80;;;14.60;99.90;;;;;;4990385;28;20211;-65
2024/02/15 06:12:45;;;;;;;7.37;6.87;;;14.60;99.90;;;;;;4992821;28;20587;-65
2024/02/15 06:15:14;;;;;;;5.43;4.90;;;14.60;99.90;;;;;;4992003;28;20210;-61
2024/02/15 06:17:43;;;;;;;5.60;5.20;;;14.50;99.90;;;;;;4992485;28;20215;-65
2024/02/15 06:20:14;;;;;;;6.80;4.87;;;14.40;99.90;;;;;;4975334;28;20514;-60
2024/02/15 06:22:41;;;;;;;4.97;4.57;;;14.40;99.90;;;;;;4992938;28;20467;-64
2024/02/15 06:25:07;;;;;;;5.30;4.90;;;14.40;99.90;;;;;;4991715;28;20414;-64
2024/02/15 06:27:33;;;;;;;6.03;5.53;;;14.40;99.90;;;;;;4990230;28;20585;-64
2024/02/15 06:40:56;;;;;;;5.07;4.70;;;14.40;99.90;;;;;;4992127;28;20413;-68
2024/02/15 06:43:22;;;;;;;5.93;5.43;;;14.40;99.90;;;;;;4973984;28;20434;-67
2024/02/15 06:45:51;;;;;;;6.73;5.10;;;14.40;99.90;;;;;;4992002;28;20669;-67
2024/02/15 06:48:16;;;;;;;4.73;4.33;;;14.50;99.90;;;;;;4991126;28;20988;-67
2024/02/15 06:50:42;;;;;;;4.67;4.40;;;14.50;99.90;;;;;;4992098;28;20578;-68
2024/02/15 06:53:08;;;;;;;5.13;4.73;;;14.50;99.90;;;;;;4966565;28;20258;-64
2024/02/15 06:55:36;;;;;;;6.03;5.43;;;14.30;99.90;;;;;;4989659;28;20210;-72
2024/02/15 06:58:02;;;;;;;5.17;4.77;;;14.30;99.90;;;;;;4991315;28;20195;-69
2024/02/15 07:00:30;;;;;;;5.00;4.60;;;14.30;99.90;;;;;;4990794;28;20429;-68
2024/02/15 07:02:55;;;;;;;5.50;5.00;;;14.40;99.90;;;;;;4991692;28;20178;-68
2024/02/15 07:05:23;;;;;;;5.90;4.63;;;14.20;99.90;;;;;;4991182;28;20431;-69
2024/02/15 07:07:49;;;;;;;6.50;6.00;;;14.10;99.90;;;;;;4991317;28;20234;-69
2024/02/15 07:10:16;;;;;;;4.20;3.90;;;14.20;99.90;;;;;;4974588;28;20788;-63
2024/02/15 07:12:43;;;;;;;7.07;6.60;;;14.30;99.90;;;;;;4992371;28;20790;-68
2024/02/15 07:15:09;;;;;;;4.37;4.07;;;14.30;99.90;;;;;;4991843;28;20456;-67
2024/02/15 07:17:36;;;;;;;6.93;3.97;;;14.30;99.90;;;;;;4992098;28;21031;-69
2024/02/15 07:20:03;;;;;;;4.60;4.30;;;14.30;99.90;;;;;;4995043;28;20239;-71
2024/02/15 07:22:32;;;;;;;5.10;4.70;;;14.30;99.90;;;;;;4994646;28;20420;-71
2024/02/15 07:24:58;;;;;;;5.50;5.00;;;14.30;99.90;;;;;;4977517;28;21005;-70
2024/02/15 07:27:25;;;;;;;6.03;5.17;;;14.00;99.90;;;;;;4993956;28;20458;-67
2024/02/15 07:29:52;;;;;;;6.67;4.27;;;14.10;99.90;;;;;;4994926;28;20430;-74
2024/02/15 07:32:18;;;;;;;5.77;5.27;;;14.10;99.90;;;;;;4994118;28;20455;-71
2024/02/15 07:34:45;;;;;;;5.40;4.90;;;14.10;99.90;;;;;;4993868;28;20980;-68
2024/02/15 07:37:12;;;;;;;5.60;5.07;;;14.10;99.90;;;;;;4987995;28;20927;-66
2024/02/15 07:39:40;;;;;;;5.90;5.23;;;14.10;99.90;;;;;;4991912;28;20445;-67
2024/02/15 07:42:08;;;;;;;5.57;4.80;;;14.20;99.90;;;;;;4995228;28;20435;-68
2024/02/15 07:44:36;;;;;;;5.33;4.93;;;14.20;99.90;;;;;;4993545;28;20429;-68
2024/02/15 07:47:02;;;;;;;5.40;4.97;;;14.30;99.90;;;;;;4994961;28;20915;-66
2024/02/15 07:49:28;;;;;;;5.47;4.90;;;14.30;99.90;;;;;;4994170;28;20421;-67
2024/02/15 07:51:54;;;;;;;5.00;4.80;;;14.40;99.90;;;;;;4994344;28;20459;-68
2024/02/15 07:54:23;;;;;;;5.20;4.90;;;14.40;99.90;;;;;;4977244;28;20426;-67
2024/02/15 07:56:49;;;;;;;5.03;4.30;;;14.40;99.90;;;;;;4993855;28;20240;-68
2024/02/15 07:59:21;;;;;;;5.27;4.80;;;14.40;99.90;;;;;;4994443;28;20427;-61
2024/02/15 08:01:49;;;;;;;5.30;4.57;;;14.50;99.90;;;;;;4990625;28;20507;-66
2024/02/15 08:04:20;;;;;;;4.47;4.20;;;14.40;99.90;;;;;;4993144;28;20515;-62
2024/02/15 08:06:48;;;;;;;7.70;6.60;;;14.20;99.90;;;;;;4961109;28;20772;-68
2024/02/15 08:09:17;;;;;;;14.93;11.90;;;14.30;99.90;;;;;;4993556;28;20451;-68
2024/02/15 08:11:44;;;;;;;6.47;6.00;;;14.30;99.90;;;;;;4993948;28;20414;-68
2024/02/15 08:14:10;;;;;;;5.50;4.47;;;14.40;99.90;;;;;;4993701;28;20450;-62
2024/02/15 08:16:41;;;;;;;7.80;7.00;;;14.30;99.90;;;;;;4992144;28;20481;-63
2024/02/15 08:19:07;;;;;;;5.03;4.63;;;14.50;99.90;;;;;;4993705;28;20835;-63
2024/02/15 08:21:36;;;;;;;7.30;6.67;;;14.60;99.90;;;;;;4992973;28;20428;-63
2024/02/15 08:24:06;;;;;;;6.80;4.80;;;14.80;99.90;;;;;;4993753;28;20429;-63
2024/02/15 08:26:39;;;;;;;5.30;4.80;;;14.90;99.90;;;;;;4993810;28;20445;-63
2024/02/15 08:29:06;;;;;;;5.03;4.63;;;15.00;99.90;;;;;;4994204;28;20398;-63
2024/02/15 08:31:32;;;;;;;4.53;4.13;;;14.90;99.90;;;;;;4982600;28;20437;-63
2024/02/15 08:33:58;;;;;;;6.70;6.10;;;15.00;99.90;;;;;;4984642;28;20425;-63
2024/02/15 08:36:24;;;;;;;6.50;5.37;;;15.20;99.90;;;;;;4976242;28;20449;-63
2024/02/15 08:38:50;;;;;;;3.23;3.03;;;15.40;99.90;;;;;;4986040;28;20468;-64
2024/02/15 08:41:18;;;;;;;4.60;4.20;;;15.60;99.90;;;;;;4984248;28;20506;-63
2024/02/15 08:43:46;;;;;;;3.27;3.03;;;15.70;99.90;;;;;;4983571;28;20414;-64
2024/02/15 08:46:12;;;;;;;3.90;3.50;;;15.80;99.90;;;;;;4993899;28;20420;-63
2024/02/15 08:48:38;;;;;;;3.73;3.53;;;15.70;99.90;;;;;;4993510;28;20425;-63
2024/02/15 08:51:05;;;;;;;4.70;4.30;;;15.60;99.90;;;;;;4992627;28;20525;-63
2024/02/15 08:53:32;;;;;;;4.43;4.03;;;15.60;99.90;;;;;;4993553;28;20586;-63
2024/02/15 08:55:57;;;;;;;3.83;3.53;;;15.80;99.90;;;;;;4991997;28;20461;-65
2024/02/15 08:58:23;;;;;;;5.50;5.10;;;15.60;99.90;;;;;;4993798;28;20807;-65
2024/02/15 09:00:49;;;;;;;61.87;41.33;;;15.30;99.90;;;;;;4994213;28;20445;-65
2024/02/15 09:03:15;;;;;;;46.77;32.83;;;15.40;99.90;;;;;;4994189;28;20223;-65
2024/02/15 09:05:41;;;;;;;8.57;7.70;;;15.30;99.90;;;;;;4993354;28;20418;-65
2024/02/15 09:08:07;;;;;;;4.40;4.10;;;15.10;99.90;;;;;;4994093;28;20257;-65
2024/02/15 09:10:33;;;;;;;6.10;5.13;;;15.00;99.90;;;;;;4992949;28;20178;-65
2024/02/15 09:12:59;;;;;;;5.77;5.20;;;14.90;99.90;;;;;;4992607;28;20454;-64
2024/02/15 09:15:25;;;;;;;4.87;4.57;;;14.90;99.90;;;;;;4974941;28;20472;-69
2024/02/15 09:17:51;;;;;;;5.80;5.17;;;14.90;99.90;;;;;;4993273;28;20214;-69
2024/02/15 09:20:20;;;;;;;5.33;3.27;;;15.00;99.90;;;;;;4991724;28;20214;-69
2024/02/15 09:22:51;;;;;;;5.50;3.20;;;14.90;99.90;;;;;;4991659;28;20650;-69
2024/02/15 09:25:24;;;;;;;3.50;3.30;;;14.80;99.90;;;;;;4992074;28;20472;-69
2024/02/15 09:27:51;;;;;;;6.23;5.90;;;14.80;99.90;;;;;;4992270;28;20426;-69
2024/02/15 09:30:17;;;;;;;16.67;13.33;;;14.70;99.90;;;;;;4991476;28;20770;-68
2024/02/15 09:32:44;;;;;;;6.80;6.13;;;14.70;99.90;;;;;;4973908;28;20569;-69
2024/02/15 09:35:12;;;;;;;4.77;4.37;;;14.70;99.90;;;;;;4988359;28;20568;-69
2024/02/15 09:37:46;;;;;;;5.30;4.83;;;14.70;99.90;;;;;;4991611;28;20474;-68
2024/02/15 09:40:16;;;;;;;4.93;4.60;;;14.80;99.90;;;;;;4991085;28;20413;-69
2024/02/15 09:42:44;;;;;;;6.40;5.80;;;14.70;99.90;;;;;;4992463;28;20394;-69
2024/02/15 09:45:16;;;;;;;4.80;4.37;;;14.70;99.90;;;;;;4992775;28;20424;-69
2024/02/15 09:47:42;;;;;;;5.33;4.93;;;14.60;99.90;;;;;;4992210;28;20445;-69
2024/02/15 09:50:11;;;;;;;5.50;5.10;;;14.60;99.90;;;;;;4992866;28;20494;-70
2024/02/15 09:53:02;;;;;;;5.20;4.90;;;14.60;99.90;;;;;;4991904;28;20441;-69
2024/02/15 09:55:28;;;;;;;3.77;3.47;;;14.70;99.90;;;;;;4992713;28;20959;-69
2024/02/15 09:57:55;;;;;;;6.63;4.90;;;14.70;99.90;;;;;;4992257;28;20453;-69
2024/02/15 10:00:21;;;;;;;5.80;5.50;;;14.70;99.90;;;;;;4991234;28;20426;-69
2024/02/15 10:02:52;;;;;;;4.53;4.23;;;14.70;99.90;;;;;;4989861;28;20441;-69
2024/02/15 10:05:19;;;;;;;4.20;3.80;;;14.60;99.90;;;;;;4993040;28;20182;-69
2024/02/15 10:07:45;;;;;;;5.23;4.47;;;14.60;99.90;;;;;;4992680;28;20417;-69
2024/02/15 10:10:19;;;;;;;4.30;4.10;;;14.30;99.90;;;;;;4991295;28;20426;-69
2024/02/15 10:12:55;;;;;;;4.43;4.13;;;14.40;99.90;;;;;;4992801;28;20421;-69
2024/02/15 10:15:33;;;;;;;4.00;3.70;;;14.40;99.90;;;;;;4993516;28;20452;-69
2024/02/15 10:18:05;;;;;;;3.90;3.70;;;14.30;99.90;;;;;;4993284;28;20554;-69
2024/02/15 10:20:31;;;;;;;4.07;3.87;;;14.40;99.90;;;;;;4992708;28;20426;-69
2024/02/15 10:23:12;;;;;;;4.10;3.80;;;14.50;99.90;;;;;;4993326;28;20408;-69
2024/02/15 10:25:39;;;;;;;4.20;4.00;;;14.50;99.90;;;;;;4992738;28;20874;-69
2024/02/15 10:28:06;;;;;;;4.73;4.43;;;14.50;99.90;;;;;;4993188;28;20410;-69
2024/02/15 10:30:37;;;;;;;4.20;3.80;;;14.40;99.90;;;;;;4992543;28;20499;-69
2024/02/15 10:33:04;;;;;;;4.50;4.30;;;14.40;99.90;;;;;;4975799;28;20397;-69
2024/02/15 10:35:31;;;;;;;4.50;4.10;;;14.50;99.90;;;;;;4992502;28;20457;-69
2024/02/15 10:38:10;;;;;;;4.53;4.20;;;14.50;99.90;;;;;;4992127;28;20429;-69
2024/02/15 10:40:43;;;;;;;4.97;4.70;;;14.30;99.90;;;;;;4992498;28;20488;-69
2024/02/15 10:43:12;;;;;;;5.00;4.70;;;14.40;99.90;;;;;;4993081;28;20414;-69
2024/02/15 10:45:39;;;;;;;5.20;4.90;;;14.50;99.90;;;;;;4992482;28;20501;-69
2024/02/15 10:48:12;;;;;;;4.87;4.07;;;14.50;99.90;;;;;;4993247;28;20421;-68
2024/02/15 10:50:46;;;;;;;4.80;4.40;;;14.50;99.90;;;;;;4992378;28;20431;-69
2024/02/15 10:53:27;;;;;;;6.90;3.60;;;14.50;99.90;;;;;;4995858;28;20484;-69
2024/02/15 10:56:06;;;;;;;3.60;3.40;;;14.70;99.90;;;;;;4996916;28;20455;-69
2024/02/15 10:58:37;;;;;;;4.73;4.53;;;14.70;99.90;;;;;;4996407;28;20397;-69
2024/02/15 11:01:08;;;;;;;4.23;3.47;;;14.70;99.90;;;;;;4996999;28;20489;-69
2024/02/15 11:03:47;;;;;;;4.17;3.87;;;14.80;99.90;;;;;;4996227;28;20432;-68
2024/02/15 11:06:14;;;;;;;3.40;3.17;;;14.90;99.90;;;;;;4996835;28;20449;-69
2024/02/15 11:08:41;;;;;;;5.97;4.30;;;15.00;99.90;;;;;;4943008;28;20430;-69
2024/02/15 11:11:07;;;;;;;4.77;3.33;;;15.00;99.90;;;;;;4977179;28;20426;-69
2024/02/15 11:13:33;;;;;;;3.93;3.83;;;15.00;99.90;;;;;;4976627;28;20445;-69
2024/02/15 11:15:59;;;;;;;4.33;4.13;;;14.90;99.90;;;;;;4976877;28;20462;-69
2024/02/15 11:18:45;;;;;;;5.20;3.50;;;14.90;99.90;;;;;;4975489;28;20454;-69
2024/02/15 11:21:12;;;;;;;4.20;3.80;;;14.90;99.90;;;;;;4993879;28;20601;-69
2024/02/15 11:23:38;;;;;;;2.97;2.73;;;14.90;99.90;;;;;;4995182;28;20429;-69
2024/02/15 11:26:08;;;;;;;3.10;3.00;;;14.90;99.90;;;;;;4996451;28;20413;-69
2024/02/15 11:28:41;;;;;;;3.40;3.10;;;15.00;99.90;;;;;;4995756;28;20221;-69
2024/02/15 11:31:08;;;;;;;3.53;3.23;;;15.00;99.90;;;;;;4996421;28;20480;-70
2024/02/15 11:33:36;;;;;;;2.87;2.67;;;15.10;99.90;;;;;;4995680;28;20411;-68
2024/02/15 11:36:12;;;;;;;3.10;2.90;;;15.20;99.90;;;;;;4996372;28;20453;-69
2024/02/15 11:38:41;;;;;;;3.70;3.40;;;15.20;99.90;;;;;;4995563;28;20751;-69
2024/02/15 11:41:11;;;;;;;3.80;3.50;;;15.10;99.90;;;;;;4996169;28;20492;-69
2024/02/15 11:43:57;;;;;;;3.00;2.90;;;15.10;99.90;;;;;;4995715;28;20418;-68
2024/02/15 11:46:30;;;;;;;3.40;3.20;;;15.10;99.90;;;;;;4995838;28;20413;-69
2024/02/15 11:48:58;;;;;;;3.30;3.10;;;15.10;99.90;;;;;;4995299;28;20441;-69
2024/02/15 11:51:30;;;;;;;3.20;2.90;;;15.10;99.90;;;;;;4995785;28;20414;-69
2024/02/15 11:53:59;;;;;;;2.93;2.73;;;15.20;99.90;;;;;;4996109;28;20452;-69
2024/02/15 11:56:26;;;;;;;3.10;2.80;;;15.10;99.90;;;;;;4995602;28;20462;-69
2024/02/15 11:59:06;;;;;;;3.40;3.10;;;15.30;99.90;;;;;;4995169;28;20434;-69
2024/02/15 12:21:02;;;;;;;3.53;3.23;;;15.50;99.90;;;;;;4995333;28;20840;-69
2024/02/15 12:23:32;;;;;;;3.63;3.43;;;15.60;99.90;;;;;;4995339;28;20914;-69
2024/02/15 12:25:58;;;;;;;3.20;3.00;;;15.60;99.90;;;;;;4995285;28;20848;-69
2024/02/15 12:28:23;;;;;;;3.67;3.47;;;15.70;99.90;;;;;;4994396;28;20448;-68
2024/02/15 12:30:56;;;;;;;4.20;3.77;;;15.60;99.90;;;;;;4992599;28;20434;-69
2024/02/15 12:33:22;;;;;;;4.00;3.70;;;15.70;99.90;;;;;;4977817;28;20324;-69
2024/02/15 12:35:48;;;;;;;4.43;3.27;;;15.70;99.90;;;;;;4994128;28;21017;-69
2024/02/15 12:38:16;;;;;;;3.73;2.83;;;15.80;99.90;;;;;;4995140;28;20414;-69
2024/02/15 12:40:43;;;;;;;3.40;3.20;;;15.80;99.90;;;;;;4994717;28;20221;-68
2024/02/15 12:43:09;;;;;;;5.60;2.97;;;15.90;99.90;;;;;;4995025;28;20756;-70
2024/02/15 12:45:39;;;;;;;3.90;3.63;;;15.90;99.90;;;;;;4994295;28;20445;-69
2024/02/15 12:48:06;;;;;;;2.60;2.50;;;15.90;99.90;;;;;;4992461;28;20234;-69
2024/02/15 12:50:33;;;;;;;2.57;2.33;;;15.90;99.90;;;;;;4994262;28;20445;-64
2024/02/15 12:53:02;;;;;;;3.43;3.23;;;15.90;99.90;;;;;;4992532;28;20438;-69
2024/02/15 12:55:31;;;;;;;2.97;2.67;;;16.00;99.90;;;;;;4975517;28;20458;-70
2024/02/15 12:57:57;;;;;;;3.27;3.03;;;16.10;99.90;;;;;;4991677;28;20419;-75
2024/02/15 13:00:28;;;;;;;3.70;3.50;;;16.20;99.90;;;;;;4990614;28;20937;-68
2024/02/15 13:02:55;;;;;;;3.23;3.03;;;16.20;99.90;;;;;;4989174;28;20823;-70
2024/02/15 13:05:23;;;;;;;3.03;2.80;;;16.30;99.90;;;;;;4991027;28;20803;-69
2024/02/15 13:07:49;;;;;;;3.03;2.73;;;16.40;99.90;;;;;;4990590;28;20836;-70
2024/02/15 13:10:16;;;;;;;3.30;3.00;;;16.40;99.90;;;;;;4992760;28;20430;-69
2024/02/15 13:12:43;;;;;;;3.10;2.90;;;16.40;99.90;;;;;;4985070;28;20423;-69
2024/02/15 13:15:14;;;;;;;3.87;2.90;;;16.50;99.90;;;;;;4974407;28;20460;-69